sensor_id;sensor_type;location;lat;lon;timestamp;P1;durP1;ratioP1;P2;durP2;ratioP2
69569;SDS011;56781;42.292;23.146;2022-07-23T00:00:21;4.85;;;2.47;;
69569;SDS011;56781;42.292;23.146;2022-07-23T00:02:49;6.28;;;2.65;;
69569;SDS011;56781;42.292;23.146;2022-07-23T00:05:16;5.05;;;2.60;;
69569;SDS011;56781;42.292;23.146;2022-07-23T00:07:43;6.30;;;2.92;;
69569;SDS011;56781;42.292;23.146;2022-07-23T00:10:10;5.22;;;2.90;;
69569;SDS011;56781;42.292;23.146;2022-07-23T00:12:38;5.50;;;2.78;;
69569;SDS011;56781;42.292;23.146;2022-07-23T00:15:17;6.38;;;2.58;;
69569;SDS011;56781;42.292;23.146;2022-07-23T00:17:44;6.55;;;2.75;;
69569;SDS011;56781;42.292;23.146;2022-07-23T00:20:12;5.45;;;2.85;;
69569;SDS011;56781;42.292;23.146;2022-07-23T00:22:50;5.93;;;2.60;;
69569;SDS011;56781;42.292;23.146;2022-07-23T00:25:19;8.85;;;2.90;;
69569;SDS011;56781;42.292;23.146;2022-07-23T00:27:54;5.28;;;2.38;;
69569;SDS011;56781;42.292;23.146;2022-07-23T00:30:22;5.28;;;2.83;;
69569;SDS011;56781;42.292;23.146;2022-07-23T00:32:50;7.82;;;2.90;;
69569;SDS011;56781;42.292;23.146;2022-07-23T00:35:22;6.05;;;2.63;;
69569;SDS011;56781;42.292;23.146;2022-07-23T00:37:53;5.47;;;2.65;;
69569;SDS011;56781;42.292;23.146;2022-07-23T00:40:21;6.80;;;2.70;;
69569;SDS011;56781;42.292;23.146;2022-07-23T00:42:49;6.20;;;2.95;;
69569;SDS011;56781;42.292;23.146;2022-07-23T00:45:16;5.18;;;2.65;;
69569;SDS011;56781;42.292;23.146;2022-07-23T00:47:44;7.18;;;2.60;;
69569;SDS011;56781;42.292;23.146;2022-07-23T00:50:13;6.05;;;2.67;;
69569;SDS011;56781;42.292;23.146;2022-07-23T00:52:41;5.07;;;2.65;;
69569;SDS011;56781;42.292;23.146;2022-07-23T00:55:09;5.35;;;2.88;;
69569;SDS011;56781;42.292;23.146;2022-07-23T00:57:38;4.65;;;2.65;;
69569;SDS011;56781;42.292;23.146;2022-07-23T01:00:07;8.05;;;3.10;;
69569;SDS011;56781;42.292;23.146;2022-07-23T01:02:38;6.82;;;2.92;;
69569;SDS011;56781;42.292;23.146;2022-07-23T01:05:06;5.63;;;3.08;;
69569;SDS011;56781;42.292;23.146;2022-07-23T01:07:34;12.65;;;2.65;;
69569;SDS011;56781;42.292;23.146;2022-07-23T01:10:03;6.15;;;2.50;;
69569;SDS011;56781;42.292;23.146;2022-07-23T01:12:32;5.28;;;2.50;;
69569;SDS011;56781;42.292;23.146;2022-07-23T01:14:59;5.78;;;2.38;;
69569;SDS011;56781;42.292;23.146;2022-07-23T01:17:27;5.40;;;2.38;;
69569;SDS011;56781;42.292;23.146;2022-07-23T01:19:54;5.40;;;2.88;;
69569;SDS011;56781;42.292;23.146;2022-07-23T01:22:21;5.50;;;2.58;;
69569;SDS011;56781;42.292;23.146;2022-07-23T01:24:50;5.40;;;2.75;;
69569;SDS011;56781;42.292;23.146;2022-07-23T01:27:17;10.20;;;2.67;;
69569;SDS011;56781;42.292;23.146;2022-07-23T01:29:46;4.90;;;2.67;;
69569;SDS011;56781;42.292;23.146;2022-07-23T01:32:13;4.82;;;2.70;;
69569;SDS011;56781;42.292;23.146;2022-07-23T01:34:40;6.00;;;3.03;;
69569;SDS011;56781;42.292;23.146;2022-07-23T01:37:07;5.10;;;2.15;;
69569;SDS011;56781;42.292;23.146;2022-07-23T01:39:34;4.75;;;2.45;;
69569;SDS011;56781;42.292;23.146;2022-07-23T01:42:02;7.60;;;2.80;;
69569;SDS011;56781;42.292;23.146;2022-07-23T01:44:29;7.50;;;2.85;;
69569;SDS011;56781;42.292;23.146;2022-07-23T01:46:56;5.63;;;2.75;;
69569;SDS011;56781;42.292;23.146;2022-07-23T01:49:23;7.05;;;2.97;;
69569;SDS011;56781;42.292;23.146;2022-07-23T01:51:50;10.40;;;2.72;;
69569;SDS011;56781;42.292;23.146;2022-07-23T01:54:26;6.00;;;2.67;;
69569;SDS011;56781;42.292;23.146;2022-07-23T01:56:55;6.10;;;2.60;;
69569;SDS011;56781;42.292;23.146;2022-07-23T01:59:23;4.82;;;2.20;;
69569;SDS011;56781;42.292;23.146;2022-07-23T02:01:51;7.30;;;3.00;;
69569;SDS011;56781;42.292;23.146;2022-07-23T02:04:19;5.97;;;2.40;;
69569;SDS011;56781;42.292;23.146;2022-07-23T02:06:47;8.68;;;2.35;;
69569;SDS011;56781;42.292;23.146;2022-07-23T02:09:16;6.78;;;2.60;;
69569;SDS011;56781;42.292;23.146;2022-07-23T02:11:43;5.90;;;2.58;;
69569;SDS011;56781;42.292;23.146;2022-07-23T02:14:10;6.13;;;2.63;;
69569;SDS011;56781;42.292;23.146;2022-07-23T02:16:38;8.65;;;3.17;;
69569;SDS011;56781;42.292;23.146;2022-07-23T02:19:05;5.15;;;2.70;;
69569;SDS011;56781;42.292;23.146;2022-07-23T02:21:32;7.95;;;2.70;;
69569;SDS011;56781;42.292;23.146;2022-07-23T02:24:00;5.20;;;2.35;;
69569;SDS011;56781;42.292;23.146;2022-07-23T02:26:27;7.95;;;2.72;;
69569;SDS011;56781;42.292;23.146;2022-07-23T02:28:54;6.47;;;3.17;;
69569;SDS011;56781;42.292;23.146;2022-07-23T02:31:21;11.05;;;2.90;;
69569;SDS011;56781;42.292;23.146;2022-07-23T02:33:48;4.93;;;2.20;;
69569;SDS011;56781;42.292;23.146;2022-07-23T02:36:15;5.32;;;2.63;;
69569;SDS011;56781;42.292;23.146;2022-07-23T02:38:42;7.38;;;2.70;;
69569;SDS011;56781;42.292;23.146;2022-07-23T02:41:10;6.40;;;2.70;;
69569;SDS011;56781;42.292;23.146;2022-07-23T02:43:37;6.72;;;2.25;;
69569;SDS011;56781;42.292;23.146;2022-07-23T02:46:04;4.93;;;2.40;;
69569;SDS011;56781;42.292;23.146;2022-07-23T02:48:31;5.82;;;2.72;;
69569;SDS011;56781;42.292;23.146;2022-07-23T02:51:00;7.72;;;2.63;;
69569;SDS011;56781;42.292;23.146;2022-07-23T02:53:27;4.95;;;2.50;;
69569;SDS011;56781;42.292;23.146;2022-07-23T02:55:55;7.00;;;2.78;;
69569;SDS011;56781;42.292;23.146;2022-07-23T02:58:22;6.43;;;2.80;;
69569;SDS011;56781;42.292;23.146;2022-07-23T03:00:49;4.38;;;2.28;;
69569;SDS011;56781;42.292;23.146;2022-07-23T03:03:17;5.63;;;2.80;;
69569;SDS011;56781;42.292;23.146;2022-07-23T03:05:44;4.68;;;2.35;;
69569;SDS011;56781;42.292;23.146;2022-07-23T03:08:12;6.03;;;2.60;;
69569;SDS011;56781;42.292;23.146;2022-07-23T03:10:39;5.78;;;2.95;;
69569;SDS011;56781;42.292;23.146;2022-07-23T03:13:06;6.65;;;3.03;;
69569;SDS011;56781;42.292;23.146;2022-07-23T03:15:33;6.20;;;2.60;;
69569;SDS011;56781;42.292;23.146;2022-07-23T03:18:00;13.43;;;3.70;;
69569;SDS011;56781;42.292;23.146;2022-07-23T03:20:27;6.32;;;2.42;;
69569;SDS011;56781;42.292;23.146;2022-07-23T03:22:55;10.35;;;2.33;;
69569;SDS011;56781;42.292;23.146;2022-07-23T03:25:22;10.88;;;2.47;;
69569;SDS011;56781;42.292;23.146;2022-07-23T03:27:49;7.75;;;2.80;;
69569;SDS011;56781;42.292;23.146;2022-07-23T03:30:16;6.43;;;2.90;;
69569;SDS011;56781;42.292;23.146;2022-07-23T03:32:43;7.05;;;2.60;;
69569;SDS011;56781;42.292;23.146;2022-07-23T03:35:11;6.20;;;3.17;;
69569;SDS011;56781;42.292;23.146;2022-07-23T03:37:38;8.88;;;3.20;;
69569;SDS011;56781;42.292;23.146;2022-07-23T03:40:05;7.03;;;2.80;;
69569;SDS011;56781;42.292;23.146;2022-07-23T03:42:33;6.43;;;2.75;;
69569;SDS011;56781;42.292;23.146;2022-07-23T03:45:00;7.97;;;2.95;;
69569;SDS011;56781;42.292;23.146;2022-07-23T03:47:28;9.13;;;2.67;;
69569;SDS011;56781;42.292;23.146;2022-07-23T03:49:55;6.57;;;2.90;;
69569;SDS011;56781;42.292;23.146;2022-07-23T03:52:22;6.57;;;2.38;;
69569;SDS011;56781;42.292;23.146;2022-07-23T03:54:49;7.35;;;2.95;;
69569;SDS011;56781;42.292;23.146;2022-07-23T03:57:17;7.70;;;2.65;;
69569;SDS011;56781;42.292;23.146;2022-07-23T03:59:44;6.18;;;2.47;;
69569;SDS011;56781;42.292;23.146;2022-07-23T04:02:12;11.00;;;2.67;;
69569;SDS011;56781;42.292;23.146;2022-07-23T04:04:39;5.90;;;2.78;;
69569;SDS011;56781;42.292;23.146;2022-07-23T04:07:06;4.93;;;2.42;;
69569;SDS011;56781;42.292;23.146;2022-07-23T04:09:34;7.22;;;2.70;;
69569;SDS011;56781;42.292;23.146;2022-07-23T04:12:01;9.82;;;2.80;;
69569;SDS011;56781;42.292;23.146;2022-07-23T04:14:28;7.43;;;2.78;;
69569;SDS011;56781;42.292;23.146;2022-07-23T04:16:55;6.35;;;3.30;;
69569;SDS011;56781;42.292;23.146;2022-07-23T04:19:22;7.35;;;2.75;;
69569;SDS011;56781;42.292;23.146;2022-07-23T04:21:50;6.05;;;2.72;;
69569;SDS011;56781;42.292;23.146;2022-07-23T04:24:17;5.97;;;2.55;;
69569;SDS011;56781;42.292;23.146;2022-07-23T04:26:45;6.10;;;2.72;;
69569;SDS011;56781;42.292;23.146;2022-07-23T04:29:12;6.80;;;3.22;;
69569;SDS011;56781;42.292;23.146;2022-07-23T04:31:39;10.02;;;3.97;;
69569;SDS011;56781;42.292;23.146;2022-07-23T04:34:06;6.90;;;2.90;;
69569;SDS011;56781;42.292;23.146;2022-07-23T04:36:33;7.85;;;3.33;;
69569;SDS011;56781;42.292;23.146;2022-07-23T04:39:00;6.78;;;3.53;;
69569;SDS011;56781;42.292;23.146;2022-07-23T04:41:30;6.93;;;3.00;;
69569;SDS011;56781;42.292;23.146;2022-07-23T04:43:57;6.43;;;2.83;;
69569;SDS011;56781;42.292;23.146;2022-07-23T04:46:24;9.23;;;3.55;;
69569;SDS011;56781;42.292;23.146;2022-07-23T04:48:51;8.63;;;2.97;;
69569;SDS011;56781;42.292;23.146;2022-07-23T04:51:18;11.18;;;3.47;;
69569;SDS011;56781;42.292;23.146;2022-07-23T04:53:46;8.57;;;3.50;;
69569;SDS011;56781;42.292;23.146;2022-07-23T04:56:13;8.52;;;3.60;;
69569;SDS011;56781;42.292;23.146;2022-07-23T04:58:40;6.68;;;3.60;;
69569;SDS011;56781;42.292;23.146;2022-07-23T05:01:07;7.32;;;3.47;;
69569;SDS011;56781;42.292;23.146;2022-07-23T05:03:34;9.13;;;3.40;;
69569;SDS011;56781;42.292;23.146;2022-07-23T05:06:02;8.15;;;3.80;;
69569;SDS011;56781;42.292;23.146;2022-07-23T05:08:29;9.65;;;3.95;;
69569;SDS011;56781;42.292;23.146;2022-07-23T05:10:56;7.88;;;3.38;;
69569;SDS011;56781;42.292;23.146;2022-07-23T05:13:23;7.40;;;3.25;;
69569;SDS011;56781;42.292;23.146;2022-07-23T05:15:51;10.50;;;3.75;;
69569;SDS011;56781;42.292;23.146;2022-07-23T05:18:18;7.85;;;3.53;;
69569;SDS011;56781;42.292;23.146;2022-07-23T05:20:45;6.82;;;3.50;;
69569;SDS011;56781;42.292;23.146;2022-07-23T05:23:12;9.25;;;3.58;;
69569;SDS011;56781;42.292;23.146;2022-07-23T05:25:40;6.68;;;3.55;;
69569;SDS011;56781;42.292;23.146;2022-07-23T05:28:07;11.23;;;3.80;;
69569;SDS011;56781;42.292;23.146;2022-07-23T05:30:34;7.15;;;3.45;;
69569;SDS011;56781;42.292;23.146;2022-07-23T05:33:01;8.50;;;3.67;;
69569;SDS011;56781;42.292;23.146;2022-07-23T05:35:28;6.07;;;3.38;;
69569;SDS011;56781;42.292;23.146;2022-07-23T05:37:55;8.13;;;3.50;;
69569;SDS011;56781;42.292;23.146;2022-07-23T05:40:23;6.68;;;3.35;;
69569;SDS011;56781;42.292;23.146;2022-07-23T05:42:50;5.88;;;3.35;;
69569;SDS011;56781;42.292;23.146;2022-07-23T05:45:17;7.85;;;3.38;;
69569;SDS011;56781;42.292;23.146;2022-07-23T05:47:45;6.75;;;3.53;;
69569;SDS011;56781;42.292;23.146;2022-07-23T05:50:14;6.38;;;3.60;;
69569;SDS011;56781;42.292;23.146;2022-07-23T05:52:42;8.00;;;3.50;;
69569;SDS011;56781;42.292;23.146;2022-07-23T05:55:10;7.78;;;3.60;;
69569;SDS011;56781;42.292;23.146;2022-07-23T05:57:39;6.35;;;3.63;;
69569;SDS011;56781;42.292;23.146;2022-07-23T06:00:08;5.90;;;3.13;;
69569;SDS011;56781;42.292;23.146;2022-07-23T06:02:37;7.25;;;3.53;;
69569;SDS011;56781;42.292;23.146;2022-07-23T06:05:05;7.55;;;3.35;;
69569;SDS011;56781;42.292;23.146;2022-07-23T06:07:34;8.27;;;3.72;;
69569;SDS011;56781;42.292;23.146;2022-07-23T06:10:03;6.38;;;3.40;;
69569;SDS011;56781;42.292;23.146;2022-07-23T06:12:34;5.82;;;3.35;;
69569;SDS011;56781;42.292;23.146;2022-07-23T06:15:01;7.95;;;4.00;;
69569;SDS011;56781;42.292;23.146;2022-07-23T06:17:29;10.30;;;3.60;;
69569;SDS011;56781;42.292;23.146;2022-07-23T06:19:56;6.28;;;3.50;;
69569;SDS011;56781;42.292;23.146;2022-07-23T06:22:23;6.22;;;3.60;;
69569;SDS011;56781;42.292;23.146;2022-07-23T06:24:51;6.93;;;3.58;;
69569;SDS011;56781;42.292;23.146;2022-07-23T06:27:18;6.82;;;3.60;;
69569;SDS011;56781;42.292;23.146;2022-07-23T06:29:51;8.70;;;4.07;;
69569;SDS011;56781;42.292;23.146;2022-07-23T06:32:18;7.55;;;3.95;;
69569;SDS011;56781;42.292;23.146;2022-07-23T06:34:45;9.77;;;4.18;;
69569;SDS011;56781;42.292;23.146;2022-07-23T06:37:14;6.07;;;3.72;;
69569;SDS011;56781;42.292;23.146;2022-07-23T06:39:42;6.35;;;3.83;;
69569;SDS011;56781;42.292;23.146;2022-07-23T06:42:10;9.70;;;4.13;;
69569;SDS011;56781;42.292;23.146;2022-07-23T06:44:38;9.88;;;4.10;;
69569;SDS011;56781;42.292;23.146;2022-07-23T06:47:05;6.95;;;3.88;;
69569;SDS011;56781;42.292;23.146;2022-07-23T06:49:33;7.22;;;3.72;;
69569;SDS011;56781;42.292;23.146;2022-07-23T06:52:00;8.63;;;3.67;;
69569;SDS011;56781;42.292;23.146;2022-07-23T06:54:27;7.73;;;4.20;;
69569;SDS011;56781;42.292;23.146;2022-07-23T06:56:54;6.97;;;3.78;;
69569;SDS011;56781;42.292;23.146;2022-07-23T06:59:21;7.22;;;3.72;;
69569;SDS011;56781;42.292;23.146;2022-07-23T07:01:48;10.10;;;3.90;;
69569;SDS011;56781;42.292;23.146;2022-07-23T07:04:15;9.85;;;3.90;;
69569;SDS011;56781;42.292;23.146;2022-07-23T07:06:42;8.77;;;3.73;;
69569;SDS011;56781;42.292;23.146;2022-07-23T07:09:09;8.20;;;4.00;;
69569;SDS011;56781;42.292;23.146;2022-07-23T07:11:36;10.10;;;4.72;;
69569;SDS011;56781;42.292;23.146;2022-07-23T07:14:03;10.63;;;4.40;;
69569;SDS011;56781;42.292;23.146;2022-07-23T07:16:30;11.63;;;4.40;;
69569;SDS011;56781;42.292;23.146;2022-07-23T07:18:58;15.17;;;5.40;;
69569;SDS011;56781;42.292;23.146;2022-07-23T07:21:26;19.05;;;6.03;;
69569;SDS011;56781;42.292;23.146;2022-07-23T07:23:53;22.77;;;5.90;;
69569;SDS011;56781;42.292;23.146;2022-07-23T07:26:20;13.77;;;5.55;;
69569;SDS011;56781;42.292;23.146;2022-07-23T07:28:47;20.90;;;5.03;;
69569;SDS011;56781;42.292;23.146;2022-07-23T07:31:14;9.70;;;4.67;;
69569;SDS011;56781;42.292;23.146;2022-07-23T07:33:41;12.07;;;4.93;;
69569;SDS011;56781;42.292;23.146;2022-07-23T07:36:08;11.20;;;4.43;;
69569;SDS011;56781;42.292;23.146;2022-07-23T07:38:35;9.20;;;4.45;;
69569;SDS011;56781;42.292;23.146;2022-07-23T07:41:02;15.55;;;5.00;;
69569;SDS011;56781;42.292;23.146;2022-07-23T07:43:29;10.40;;;4.40;;
69569;SDS011;56781;42.292;23.146;2022-07-23T07:45:56;10.13;;;4.28;;
69569;SDS011;56781;42.292;23.146;2022-07-23T07:48:24;11.57;;;4.85;;
69569;SDS011;56781;42.292;23.146;2022-07-23T07:50:51;10.05;;;4.70;;
69569;SDS011;56781;42.292;23.146;2022-07-23T07:53:18;11.63;;;4.70;;
69569;SDS011;56781;42.292;23.146;2022-07-23T07:55:45;8.67;;;4.43;;
69569;SDS011;56781;42.292;23.146;2022-07-23T07:58:17;11.38;;;4.95;;
69569;SDS011;56781;42.292;23.146;2022-07-23T08:00:44;11.95;;;4.40;;
69569;SDS011;56781;42.292;23.146;2022-07-23T08:03:11;9.95;;;4.35;;
69569;SDS011;56781;42.292;23.146;2022-07-23T08:05:39;7.55;;;4.07;;
69569;SDS011;56781;42.292;23.146;2022-07-23T08:08:06;8.07;;;4.50;;
69569;SDS011;56781;42.292;23.146;2022-07-23T08:10:33;10.98;;;4.65;;
69569;SDS011;56781;42.292;23.146;2022-07-23T08:13:00;10.20;;;4.50;;
69569;SDS011;56781;42.292;23.146;2022-07-23T08:15:28;9.50;;;4.68;;
69569;SDS011;56781;42.292;23.146;2022-07-23T08:17:56;10.40;;;5.30;;
69569;SDS011;56781;42.292;23.146;2022-07-23T08:20:24;9.93;;;4.30;;
69569;SDS011;56781;42.292;23.146;2022-07-23T08:22:55;9.50;;;4.38;;
69569;SDS011;56781;42.292;23.146;2022-07-23T08:25:25;7.85;;;4.63;;
69569;SDS011;56781;42.292;23.146;2022-07-23T08:28:03;8.68;;;4.40;;
69569;SDS011;56781;42.292;23.146;2022-07-23T08:30:32;10.48;;;4.60;;
69569;SDS011;56781;42.292;23.146;2022-07-23T08:33:04;10.70;;;4.20;;
69569;SDS011;56781;42.292;23.146;2022-07-23T08:35:35;8.13;;;4.38;;
69569;SDS011;56781;42.292;23.146;2022-07-23T08:38:05;10.05;;;4.30;;
69569;SDS011;56781;42.292;23.146;2022-07-23T08:40:34;11.10;;;4.65;;
69569;SDS011;56781;42.292;23.146;2022-07-23T08:43:09;9.02;;;4.93;;
69569;SDS011;56781;42.292;23.146;2022-07-23T08:45:39;9.03;;;4.40;;
69569;SDS011;56781;42.292;23.146;2022-07-23T08:48:08;9.98;;;4.45;;
69569;SDS011;56781;42.292;23.146;2022-07-23T08:50:44;9.38;;;4.72;;
69569;SDS011;56781;42.292;23.146;2022-07-23T08:53:12;7.93;;;4.70;;
69569;SDS011;56781;42.292;23.146;2022-07-23T08:55:44;9.13;;;4.30;;
69569;SDS011;56781;42.292;23.146;2022-07-23T08:58:13;8.60;;;4.70;;
69569;SDS011;56781;42.292;23.146;2022-07-23T09:00:41;10.05;;;4.65;;
69569;SDS011;56781;42.292;23.146;2022-07-23T09:03:24;9.90;;;4.43;;
69569;SDS011;56781;42.292;23.146;2022-07-23T09:05:53;8.05;;;4.88;;
69569;SDS011;56781;42.292;23.146;2022-07-23T09:08:43;11.10;;;4.82;;
69569;SDS011;56781;42.292;23.146;2022-07-23T09:11:12;7.97;;;4.53;;
69569;SDS011;56781;42.292;23.146;2022-07-23T09:16:15;7.38;;;4.68;;
69569;SDS011;56781;42.292;23.146;2022-07-23T09:18:51;12.73;;;5.00;;
69569;SDS011;56781;42.292;23.146;2022-07-23T09:21:23;12.30;;;4.88;;
69569;SDS011;56781;42.292;23.146;2022-07-23T09:24:08;9.17;;;4.43;;
69569;SDS011;56781;42.292;23.146;2022-07-23T09:26:43;9.20;;;4.35;;
69569;SDS011;56781;42.292;23.146;2022-07-23T09:29:24;8.32;;;4.43;;
69569;SDS011;56781;42.292;23.146;2022-07-23T09:31:53;8.07;;;4.70;;
69569;SDS011;56781;42.292;23.146;2022-07-23T09:34:28;9.43;;;4.63;;
69569;SDS011;56781;42.292;23.146;2022-07-23T09:37:11;8.83;;;5.03;;
69569;SDS011;56781;42.292;23.146;2022-07-23T09:39:40;7.90;;;4.72;;
69569;SDS011;56781;42.292;23.146;2022-07-23T09:42:21;8.43;;;4.40;;
69569;SDS011;56781;42.292;23.146;2022-07-23T09:44:50;7.47;;;4.43;;
69569;SDS011;56781;42.292;23.146;2022-07-23T09:47:25;7.40;;;4.38;;
69569;SDS011;56781;42.292;23.146;2022-07-23T09:49:58;6.83;;;4.67;;
69569;SDS011;56781;42.292;23.146;2022-07-23T09:52:30;7.68;;;4.15;;
69569;SDS011;56781;42.292;23.146;2022-07-23T09:55:05;7.25;;;4.18;;
69569;SDS011;56781;42.292;23.146;2022-07-23T09:57:33;8.73;;;4.10;;
69569;SDS011;56781;42.292;23.146;2022-07-23T10:00:01;7.38;;;4.45;;
69569;SDS011;56781;42.292;23.146;2022-07-23T10:02:34;9.10;;;4.53;;
69569;SDS011;56781;42.292;23.146;2022-07-23T10:05:02;10.77;;;4.80;;
69569;SDS011;56781;42.292;23.146;2022-07-23T10:07:35;8.70;;;4.45;;
69569;SDS011;56781;42.292;23.146;2022-07-23T10:10:04;8.98;;;4.60;;
69569;SDS011;56781;42.292;23.146;2022-07-23T10:12:32;7.38;;;4.22;;
69569;SDS011;56781;42.292;23.146;2022-07-23T10:15:09;8.73;;;4.57;;
69569;SDS011;56781;42.292;23.146;2022-07-23T10:17:36;7.82;;;4.88;;
69569;SDS011;56781;42.292;23.146;2022-07-23T10:20:04;10.57;;;4.75;;
69569;SDS011;56781;42.292;23.146;2022-07-23T10:22:35;10.52;;;5.00;;
69569;SDS011;56781;42.292;23.146;2022-07-23T10:28:18;9.63;;;4.73;;
69569;SDS011;56781;42.292;23.146;2022-07-23T10:31:10;7.57;;;4.80;;
69569;SDS011;56781;42.292;23.146;2022-07-23T10:36:56;13.10;;;4.80;;
69569;SDS011;56781;42.292;23.146;2022-07-23T10:39:28;11.45;;;4.90;;
69569;SDS011;56781;42.292;23.146;2022-07-23T10:42:11;8.50;;;5.03;;
69569;SDS011;56781;42.292;23.146;2022-07-23T10:44:41;11.25;;;5.10;;
69569;SDS011;56781;42.292;23.146;2022-07-23T10:47:10;15.88;;;4.90;;
69569;SDS011;56781;42.292;23.146;2022-07-23T10:58:03;11.68;;;4.80;;
69569;SDS011;56781;42.292;23.146;2022-07-23T11:00:32;8.73;;;4.50;;
69569;SDS011;56781;42.292;23.146;2022-07-23T11:03:05;9.85;;;4.90;;
69569;SDS011;56781;42.292;23.146;2022-07-23T11:05:55;9.38;;;4.30;;
69569;SDS011;56781;42.292;23.146;2022-07-23T11:08:22;12.10;;;4.47;;
69569;SDS011;56781;42.292;23.146;2022-07-23T11:10:50;11.68;;;4.63;;
69569;SDS011;56781;42.292;23.146;2022-07-23T11:24:06;8.50;;;4.05;;
69569;SDS011;56781;42.292;23.146;2022-07-23T11:34:35;7.80;;;4.27;;
69569;SDS011;56781;42.292;23.146;2022-07-23T11:37:07;8.98;;;4.10;;
69569;SDS011;56781;42.292;23.146;2022-07-23T11:39:36;9.35;;;3.95;;
69569;SDS011;56781;42.292;23.146;2022-07-23T11:42:06;10.52;;;3.95;;
69569;SDS011;56781;42.292;23.146;2022-07-23T11:44:35;9.57;;;3.70;;
69569;SDS011;56781;42.292;23.146;2022-07-23T11:47:04;7.67;;;3.73;;
69569;SDS011;56781;42.292;23.146;2022-07-23T11:49:33;7.03;;;3.85;;
69569;SDS011;56781;42.292;23.146;2022-07-23T11:52:02;7.15;;;3.67;;
69569;SDS011;56781;42.292;23.146;2022-07-23T11:54:32;10.13;;;4.03;;
69569;SDS011;56781;42.292;23.146;2022-07-23T11:57:05;7.20;;;3.47;;
69569;SDS011;56781;42.292;23.146;2022-07-23T11:59:33;7.70;;;3.73;;
69569;SDS011;56781;42.292;23.146;2022-07-23T12:02:03;9.55;;;4.18;;
69569;SDS011;56781;42.292;23.146;2022-07-23T12:10:24;6.00;;;3.35;;
69569;SDS011;56781;42.292;23.146;2022-07-23T12:12:53;7.73;;;3.50;;
69569;SDS011;56781;42.292;23.146;2022-07-23T12:15:28;8.23;;;3.45;;
69569;SDS011;56781;42.292;23.146;2022-07-23T12:18:01;8.32;;;3.47;;
69569;SDS011;56781;42.292;23.146;2022-07-23T12:20:33;8.93;;;3.00;;
69569;SDS011;56781;42.292;23.146;2022-07-23T12:23:03;9.63;;;3.67;;
69569;SDS011;56781;42.292;23.146;2022-07-23T12:25:33;6.90;;;3.60;;
69569;SDS011;56781;42.292;23.146;2022-07-23T12:28:06;6.95;;;3.50;;
69569;SDS011;56781;42.292;23.146;2022-07-23T12:33:08;7.60;;;3.40;;
69569;SDS011;56781;42.292;23.146;2022-07-23T12:35:38;7.00;;;3.10;;
69569;SDS011;56781;42.292;23.146;2022-07-23T12:38:15;9.00;;;3.40;;
69569;SDS011;56781;42.292;23.146;2022-07-23T12:40:55;8.32;;;4.13;;
69569;SDS011;56781;42.292;23.146;2022-07-23T12:43:24;8.75;;;3.20;;
69569;SDS011;56781;42.292;23.146;2022-07-23T12:46:04;7.38;;;3.33;;
69569;SDS011;56781;42.292;23.146;2022-07-23T12:48:33;7.75;;;3.47;;
69569;SDS011;56781;42.292;23.146;2022-07-23T12:51:04;7.33;;;3.43;;
69569;SDS011;56781;42.292;23.146;2022-07-23T12:53:53;8.73;;;3.17;;
69569;SDS011;56781;42.292;23.146;2022-07-23T12:56:26;7.38;;;3.17;;
69569;SDS011;56781;42.292;23.146;2022-07-23T12:59:04;5.95;;;3.42;;
69569;SDS011;56781;42.292;23.146;2022-07-23T13:01:35;9.30;;;3.83;;
69569;SDS011;56781;42.292;23.146;2022-07-23T13:04:08;9.87;;;3.67;;
69569;SDS011;56781;42.292;23.146;2022-07-23T13:06:44;8.32;;;3.28;;
69569;SDS011;56781;42.292;23.146;2022-07-23T13:09:14;6.10;;;3.78;;
69569;SDS011;56781;42.292;23.146;2022-07-23T13:11:45;7.32;;;4.00;;
69569;SDS011;56781;42.292;23.146;2022-07-23T13:14:15;6.30;;;3.42;;
69569;SDS011;56781;42.292;23.146;2022-07-23T13:16:46;8.53;;;3.40;;
69569;SDS011;56781;42.292;23.146;2022-07-23T13:19:14;9.43;;;4.00;;
69569;SDS011;56781;42.292;23.146;2022-07-23T13:21:44;5.78;;;3.00;;
69569;SDS011;56781;42.292;23.146;2022-07-23T13:24:12;8.52;;;3.80;;
69569;SDS011;56781;42.292;23.146;2022-07-23T13:26:40;6.43;;;3.42;;
69569;SDS011;56781;42.292;23.146;2022-07-23T13:29:07;8.80;;;3.90;;
69569;SDS011;56781;42.292;23.146;2022-07-23T13:31:36;8.57;;;4.03;;
69569;SDS011;56781;42.292;23.146;2022-07-23T13:34:05;8.05;;;3.90;;
69569;SDS011;56781;42.292;23.146;2022-07-23T13:36:33;8.65;;;3.78;;
69569;SDS011;56781;42.292;23.146;2022-07-23T13:39:02;7.18;;;3.90;;
69569;SDS011;56781;42.292;23.146;2022-07-23T13:41:33;6.90;;;3.77;;
69569;SDS011;56781;42.292;23.146;2022-07-23T13:44:01;8.82;;;3.78;;
69569;SDS011;56781;42.292;23.146;2022-07-23T13:46:29;10.48;;;3.78;;
69569;SDS011;56781;42.292;23.146;2022-07-23T13:48:56;6.72;;;3.95;;
69569;SDS011;56781;42.292;23.146;2022-07-23T13:51:25;7.38;;;3.70;;
69569;SDS011;56781;42.292;23.146;2022-07-23T13:53:54;10.23;;;4.10;;
69569;SDS011;56781;42.292;23.146;2022-07-23T13:56:21;8.52;;;3.90;;
69569;SDS011;56781;42.292;23.146;2022-07-23T13:58:48;12.38;;;3.92;;
69569;SDS011;56781;42.292;23.146;2022-07-23T14:01:15;10.02;;;3.70;;
69569;SDS011;56781;42.292;23.146;2022-07-23T14:03:43;6.55;;;3.60;;
69569;SDS011;56781;42.292;23.146;2022-07-23T14:06:11;8.83;;;4.17;;
69569;SDS011;56781;42.292;23.146;2022-07-23T14:08:41;7.32;;;3.40;;
69569;SDS011;56781;42.292;23.146;2022-07-23T14:11:09;8.90;;;3.95;;
69569;SDS011;56781;42.292;23.146;2022-07-23T14:13:37;5.95;;;3.30;;
69569;SDS011;56781;42.292;23.146;2022-07-23T14:16:04;7.78;;;3.63;;
69569;SDS011;56781;42.292;23.146;2022-07-23T14:18:31;7.67;;;3.80;;
69569;SDS011;56781;42.292;23.146;2022-07-23T14:20:59;6.85;;;3.47;;
69569;SDS011;56781;42.292;23.146;2022-07-23T14:23:27;8.88;;;3.83;;
69569;SDS011;56781;42.292;23.146;2022-07-23T14:25:55;11.27;;;3.70;;
69569;SDS011;56781;42.292;23.146;2022-07-23T14:28:23;6.15;;;3.38;;
69569;SDS011;56781;42.292;23.146;2022-07-23T14:30:50;6.93;;;3.10;;
69569;SDS011;56781;42.292;23.146;2022-07-23T14:33:17;8.52;;;3.80;;
69569;SDS011;56781;42.292;23.146;2022-07-23T14:35:46;6.95;;;3.50;;
69569;SDS011;56781;42.292;23.146;2022-07-23T14:38:13;8.07;;;3.55;;
69569;SDS011;56781;42.292;23.146;2022-07-23T14:40:40;6.68;;;3.15;;
69569;SDS011;56781;42.292;23.146;2022-07-23T14:43:08;8.63;;;3.67;;
69569;SDS011;56781;42.292;23.146;2022-07-23T14:45:37;8.32;;;3.15;;
69569;SDS011;56781;42.292;23.146;2022-07-23T14:48:05;9.20;;;3.80;;
69569;SDS011;56781;42.292;23.146;2022-07-23T14:50:33;6.50;;;3.47;;
69569;SDS011;56781;42.292;23.146;2022-07-23T14:53:01;7.57;;;3.50;;
69569;SDS011;56781;42.292;23.146;2022-07-23T14:55:30;8.83;;;3.37;;
69569;SDS011;56781;42.292;23.146;2022-07-23T14:57:58;8.27;;;3.95;;
69569;SDS011;56781;42.292;23.146;2022-07-23T15:00:26;8.93;;;4.00;;
69569;SDS011;56781;42.292;23.146;2022-07-23T15:02:55;8.02;;;3.85;;
69569;SDS011;56781;42.292;23.146;2022-07-23T15:05:23;7.53;;;3.47;;
69569;SDS011;56781;42.292;23.146;2022-07-23T15:07:52;5.57;;;3.17;;
69569;SDS011;56781;42.292;23.146;2022-07-23T15:10:19;8.00;;;3.63;;
69569;SDS011;56781;42.292;23.146;2022-07-23T15:12:48;8.15;;;3.45;;
69569;SDS011;56781;42.292;23.146;2022-07-23T15:15:15;7.60;;;3.83;;
69569;SDS011;56781;42.292;23.146;2022-07-23T15:17:44;8.40;;;3.70;;
69569;SDS011;56781;42.292;23.146;2022-07-23T15:20:11;6.83;;;3.40;;
69569;SDS011;56781;42.292;23.146;2022-07-23T15:22:43;6.00;;;3.20;;
69569;SDS011;56781;42.292;23.146;2022-07-23T15:25:11;5.55;;;3.08;;
69569;SDS011;56781;42.292;23.146;2022-07-23T15:27:38;11.57;;;3.40;;